Messwerte Clines Corners

Temperatur

Temperatur
°C
1603832400 15.00 15.00 -4
1603836000 16.00 16.00 -4
1603839600 17.00 17.00 -5
1603843200 18.00 18.00 -6
1603846800 19.00 19.00 -7
1603850400 20.00 20.00 -7
1603854000 21.00 21.00 -6
1603857600 22.00 22.00 -5
1603861200 23.00 23.00 -5
1603864800 0.00 0.00 -4
1603868400 1.00 1.00
1603872000 2.00 2.00 -6
1603875600 3.00 3.00 -6
1603879200 4.00 4.00 -5
1603882800 5.00 5.00 -5
1603886400 6.00 6.00 -5
1603890000 7.00 7.00 -5
1603893600 8.00 8.00
1603897200 9.00 9.00 -4
1603900800 10.00 10.00 -4
1603904400 11.00 11.00 -2
1603908000 12.00 12.00 -2
1603911600 13.00 13.00 -1
1603915200 14.00 14.00 -1

Aktuellste Messwerte

Wettercharakter
Wetter: immer wieder Schnee
Temperatur
-1 °C
Feuchtigkeit
90 %
Wind
25 km/hWindrichtung: Nordwest
Luftdruck
1016 hPa
Messzeit: 28. Oktober 2020, 15.00Datenquelle: METAR

Weitere Messstationen in der Nähe

Messstation Temperatur Entfernung
Las Vegas 1 °C 87 km
Albuquerque 7 °C 87 km
Albuquerque 2 °C 104 km
Los Alamos 4 °C 112 km
Santa Fe NM 4 °C 123 km
Taos 3 °C 161 km
Ruidoso Regional 1 °C 172 km

Wind

Windrichtung Böen Mittelwind
° km/h km/h
1603832400 15.00 14.00 - 15.00 70° 20
1603836000 16.00 15.00 - 16.00 120° 10
1603839600 17.00 16.00 - 17.00 110° 15
1603843200 18.00 17.00 - 18.00 70° 10
1603846800 19.00 18.00 - 19.00 360° 20
1603850400 20.00 19.00 - 20.00 340° 20
1603854000 21.00 20.00 - 21.00 10° 20
1603857600 22.00 21.00 - 22.00 350° 10
1603861200 23.00 22.00 - 23.00 230° 5
1603864800 0.00 23.00 - 0.00 40° 10
1603868400 1.00 0.00 - 1.00
1603872000 2.00 1.00 - 2.00 300° 20
1603875600 3.00 2.00 - 3.00 350° 15
1603879200 4.00 3.00 - 4.00 350° 20
1603882800 5.00 4.00 - 5.00 340° 35 25
1603886400 6.00 5.00 - 6.00 340° 20
1603890000 7.00 6.00 - 7.00 320° 25
1603893600 8.00 7.00 - 8.00
1603897200 9.00 8.00 - 9.00 310° 30
1603900800 10.00 9.00 - 10.00 320° 45 25
1603904400 11.00 10.00 - 11.00 320° 40 25
1603908000 12.00 11.00 - 12.00 330° 25
1603911600 13.00 12.00 - 13.00 320° 40 25
1603915200 14.00 13.00 - 14.00 310° 25

Ihre Wetterstation

Fehlt Ihre Wetterstation auf unserem Portal?

Schreiben Sie an network@meteonews.ch

Klima

Wann ist es am wärmsten? Wann regnet es am wenigsten? Unsere Klimadaten geben Auskunft.